Time;durP1;ratioP1;P1;durP2;ratioP2;P2;SDS_P1;SDS_P2;PMS_P1;PMS_P2;Temp;Humidity;BMP_temperature;BMP_pressure;BME280_temperature;BME280_humidity;BME280_pressure;Samples;Min_cycle;Max_cycle;Signal;HPM_P1;HPM_P2
2022/06/10 00:00:18;;;;;;;17.45;4.80;;;;;;;;;;5072146;28;20029;-73
2022/06/10 00:02:44;;;;;;;14.45;4.10;;;;;;;;;;5072618;28;20021;-73
2022/06/10 00:05:14;;;;;;;14.95;4.95;;;;;;;;;;5072741;28;20106;-73
2022/06/10 00:07:40;;;;;;;18.45;4.47;;;;;;;;;;5072979;28;20029;-74
2022/06/10 00:10:07;;;;;;;20.95;4.45;;;;;;;;;;5073398;28;20052;-76
2022/06/10 00:12:33;;;;;;;14.93;4.50;;;;;;;;;;5074424;28;20108;-73
2022/06/10 00:14:59;;;;;;;20.42;5.00;;;;;;;;;;5075583;28;20070;-74
2022/06/10 00:17:25;;;;;;;18.95;4.43;;;;;;;;;;5074675;28;20387;-74
2022/06/10 00:19:51;;;;;;;17.67;4.90;;;;;;;;;;5081049;28;20363;-73
2022/06/10 00:22:17;;;;;;;19.42;5.13;;;;;;;;;;5071598;28;20087;-74
2022/06/10 00:24:43;;;;;;;22.65;5.05;;;;;;;;;;5072442;28;20068;-74
2022/06/10 00:27:09;;;;;;;22.38;5.38;;;;;;;;;;5072183;28;20028;-74
2022/06/10 00:29:35;;;;;;;15.43;4.78;;;;;;;;;;5072532;28;20185;-74
2022/06/10 00:32:01;;;;;;;24.23;5.00;;;;;;;;;;5072497;28;20414;-74
2022/06/10 00:34:27;;;;;;;19.95;4.88;;;;;;;;;;5072491;28;20016;-74
2022/06/10 00:36:53;;;;;;;13.15;4.82;;;;;;;;;;5072138;28;20567;-74
2022/06/10 00:39:19;;;;;;;13.63;4.60;;;;;;;;;;5072238;28;20075;-74
2022/06/10 00:41:45;;;;;;;20.25;5.53;;;;;;;;;;5072757;28;20043;-74
2022/06/10 00:44:30;;;;;;;18.90;6.15;;;;;;;;;;5072633;28;20028;-74
2022/06/10 00:46:56;;;;;;;;;;;;;;;;;;5072276;28;20040;-74
2022/06/10 00:49:22;;;;;;;18.88;5.95;;;;;;;;;;5081053;28;20190;-74
2022/06/10 00:51:50;;;;;;;20.77;5.97;;;;;;;;;;5077927;28;20370;-74
2022/06/10 00:54:20;;;;;;;15.90;5.60;;;;;;;;;;5071907;28;20017;-74
2022/06/10 00:56:49;;;;;;;19.67;6.05;;;;;;;;;;5071834;28;20024;-73
2022/06/10 00:59:22;;;;;;;16.27;5.85;;;;;;;;;;5071832;28;20032;-74
2022/06/10 01:01:50;;;;;;;22.35;6.57;;;;;;;;;;5072193;28;20017;-74
2022/06/10 01:04:16;;;;;;;19.92;6.40;;;;;;;;;;5072557;28;20056;-74
2022/06/10 01:06:42;;;;;;;20.08;7.20;;;;;;;;;;5072112;28;20024;-73
2022/06/10 01:09:08;;;;;;;25.10;6.38;;;;;;;;;;5072021;28;20537;-73
2022/06/10 01:11:43;;;;;;;23.13;7.32;;;;;;;;;;5074616;28;20021;-73
2022/06/10 01:14:35;;;;;;;20.73;6.68;;;;;;;;;;5076126;28;20099;-73
2022/06/10 01:17:16;;;;;;;18.25;6.57;;;;;;;;;;5052470;28;20559;-74
2022/06/10 01:19:45;;;;;;;19.65;6.60;;;;;;;;;;5075640;28;20031;-74
2022/06/10 01:22:17;;;;;;;22.35;7.35;;;;;;;;;;5075703;28;20474;-73
2022/06/10 01:24:43;;;;;;;21.75;6.75;;;;;;;;;;5077178;28;20048;-73
2022/06/10 01:30:45;;;;;;;30.17;8.38;;;;;;;;;;5041278;28;20047;-75
2022/06/10 01:33:22;;;;;;;26.05;8.43;;;;;;;;;;5075758;28;20028;-74
2022/06/10 01:36:07;;;;;;;21.98;6.93;;;;;;;;;;5075357;28;20492;-73
2022/06/10 01:38:38;;;;;;;27.00;7.93;;;;;;;;;;5075473;28;20029;-74
2022/06/10 01:41:26;;;;;;;23.90;7.80;;;;;;;;;;5075317;28;20031;-74
2022/06/10 01:43:55;;;;;;;20.25;6.95;;;;;;;;;;5075406;28;20024;-74
2022/06/10 01:46:27;;;;;;;25.67;8.40;;;;;;;;;;5074903;28;20048;-74
2022/06/10 01:49:12;;;;;;;22.73;7.85;;;;;;;;;;5075229;28;20059;-73
2022/06/10 01:51:47;;;;;;;24.45;7.88;;;;;;;;;;5075454;28;20028;-73
2022/06/10 01:54:16;;;;;;;20.10;7.40;;;;;;;;;;5075172;28;20474;-73
2022/06/10 01:56:45;;;;;;;20.40;7.63;;;;;;;;;;5074724;28;20417;-73
2022/06/10 01:59:18;;;;;;;17.90;6.88;;;;;;;;;;5074972;28;20099;-74
2022/06/10 02:01:47;;;;;;;23.63;8.03;;;;;;;;;;5075168;28;20607;-73
2022/06/10 02:04:27;;;;;;;29.02;8.20;;;;;;;;;;5075284;28;20267;-73
2022/06/10 02:06:56;;;;;;;20.42;7.53;;;;;;;;;;5076060;28;20055;-73
2022/06/10 02:09:33;;;;;;;20.10;7.70;;;;;;;;;;5077959;28;20040;-73
2022/06/10 02:12:02;;;;;;;23.40;7.72;;;;;;;;;;5077759;28;20025;-73
2022/06/10 02:14:31;;;;;;;18.13;8.35;;;;;;;;;;5079234;28;20016;-75
2022/06/10 02:16:57;;;;;;;23.33;8.18;;;;;;;;;;5083645;22;20053;-71
2022/06/10 02:19:25;;;;;;;25.65;9.20;;;;;;;;;;5054424;28;20037;-71
2022/06/10 02:21:51;;;;;;;27.30;8.13;;;;;;;;;;5054247;28;20462;-71
2022/06/10 02:24:18;;;;;;;22.90;8.80;;;;;;;;;;5053928;28;20086;-70
2022/06/10 02:26:46;;;;;;;21.52;7.78;;;;;;;;;;5053989;28;20036;-71
2022/06/10 02:29:15;;;;;;;27.23;8.57;;;;;;;;;;5054033;28;20035;-70
2022/06/10 02:31:42;;;;;;;27.45;9.27;;;;;;;;;;5053984;28;20037;-70
2022/06/10 02:34:08;;;;;;;18.15;8.07;;;;;;;;;;5050469;28;20474;-69
2022/06/10 02:36:53;;;;;;;22.58;8.63;;;;;;;;;;5053098;28;20047;-69
2022/06/10 02:39:31;;;;;;;37.03;9.27;;;;;;;;;;5053956;28;20025;-70
2022/06/10 02:42:04;;;;;;;21.23;8.27;;;;;;;;;;5054084;28;20033;-70
2022/06/10 02:44:50;;;;;;;26.95;8.55;;;;;;;;;;5053986;28;20029;-70
2022/06/10 02:47:16;;;;;;;22.70;8.70;;;;;;;;;;5052789;28;20021;-70
2022/06/10 02:49:42;;;;;;;22.38;7.65;;;;;;;;;;5053723;28;20074;-70
2022/06/10 02:52:10;;;;;;;23.17;8.85;;;;;;;;;;5053625;28;20029;-69
2022/06/10 02:54:38;;;;;;;17.65;9.02;;;;;;;;;;5053513;28;20397;-70
2022/06/10 02:57:15;;;;;;;28.77;9.52;;;;;;;;;;5052998;28;20159;-69
2022/06/10 03:02:43;;;;;;;26.35;8.32;;;;;;;;;;5060077;28;20063;-70
2022/06/10 03:05:19;;;;;;;35.00;10.32;;;;;;;;;;5053594;28;20445;-70
2022/06/10 03:07:51;;;;;;;27.58;9.13;;;;;;;;;;5053719;28;20033;-70
2022/06/10 03:10:37;;;;;;;23.73;8.43;;;;;;;;;;5053448;28;20047;-70
2022/06/10 03:13:27;;;;;;;22.05;8.38;;;;;;;;;;5053304;28;20025;-69
2022/06/10 03:15:56;;;;;;;26.40;8.63;;;;;;;;;;5052881;28;20032;-69
2022/06/10 03:18:41;;;;;;;19.20;8.30;;;;;;;;;;5053538;28;20114;-71
2022/06/10 03:21:10;;;;;;;18.58;7.28;;;;;;;;;;5035643;28;20087;-69
2022/06/10 03:23:49;;;;;;;20.42;7.45;;;;;;;;;;5053079;28;20027;-70
2022/06/10 03:26:25;;;;;;;16.08;6.97;;;;;;;;;;5052876;28;20064;-72
2022/06/10 03:29:06;;;;;;;27.27;8.55;;;;;;;;;;5057408;28;20093;-69
2022/06/10 03:31:51;;;;;;;27.38;8.45;;;;;;;;;;5053108;28;20025;-69
2022/06/10 03:34:30;;;;;;;24.33;8.07;;;;;;;;;;5052586;28;20543;-70
2022/06/10 03:37:00;;;;;;;22.63;8.27;;;;;;;;;;5052283;28;20021;-69
2022/06/10 03:39:27;;;;;;;22.58;7.78;;;;;;;;;;5052836;28;20492;-70
2022/06/10 03:42:10;;;;;;;21.35;7.95;;;;;;;;;;5034948;28;20029;-69
2022/06/10 03:44:37;;;;;;;17.05;7.30;;;;;;;;;;5052822;28;20036;-70
2022/06/10 03:47:04;;;;;;;19.70;7.93;;;;;;;;;;5035397;28;20044;-70
2022/06/10 03:49:31;;;;;;;23.70;7.88;;;;;;;;;;5052580;28;20025;-69
2022/06/10 03:51:59;;;;;;;25.30;8.18;;;;;;;;;;5052791;28;20488;-70
2022/06/10 03:54:25;;;;;;;22.08;7.93;;;;;;;;;;5055012;28;20090;-71
2022/06/10 03:56:52;;;;;;;27.65;8.95;;;;;;;;;;5053644;28;20087;-70
2022/06/10 03:59:18;;;;;;;22.10;8.25;;;;;;;;;;5053141;28;20029;-70
2022/06/10 04:01:44;;;;;;;27.95;8.40;;;;;;;;;;5052480;28;20025;-69
2022/06/10 04:04:10;;;;;;;19.13;8.02;;;;;;;;;;5052390;28;20029;-69
2022/06/10 04:06:36;;;;;;;20.58;7.30;;;;;;;;;;5052120;28;20033;-70
2022/06/10 04:09:03;;;;;;;24.92;7.95;;;;;;;;;;5052411;28;20032;-69
2022/06/10 04:11:29;;;;;;;26.90;9.38;;;;;;;;;;5051980;28;20581;-70
2022/06/10 04:13:54;;;;;;;24.27;7.97;;;;;;;;;;5052245;28;20060;-69
2022/06/10 04:16:20;;;;;;;25.73;8.05;;;;;;;;;;5053134;28;20036;-67
2022/06/10 04:18:46;;;;;;;25.40;8.32;;;;;;;;;;5052033;28;20036;-69
2022/06/10 04:21:12;;;;;;;25.30;8.40;;;;;;;;;;5052203;28;20036;-68
2022/06/10 04:23:38;;;;;;;23.52;8.48;;;;;;;;;;5051965;28;20037;-69
2022/06/10 04:26:04;;;;;;;25.48;8.32;;;;;;;;;;5051542;28;20033;-68
2022/06/10 04:28:30;;;;;;;23.42;8.88;;;;;;;;;;5052154;28;20100;-68
2022/06/10 04:30:57;;;;;;;28.90;7.85;;;;;;;;;;5051850;28;20052;-69
2022/06/10 04:33:23;;;;;;;22.88;8.25;;;;;;;;;;5049240;28;20371;-69
2022/06/10 04:35:50;;;;;;;30.08;8.23;;;;;;;;;;5051017;28;20044;-69
2022/06/10 04:38:17;;;;;;;24.88;8.23;;;;;;;;;;5051810;28;20394;-70
2022/06/10 04:40:44;;;;;;;24.52;7.70;;;;;;;;;;5054166;28;20502;-69
2022/06/10 04:43:10;;;;;;;26.38;8.45;;;;;;;;;;5034363;28;20029;-70
2022/06/10 04:45:38;;;;;;;20.95;7.53;;;;;;;;;;5051239;28;20025;-71
2022/06/10 04:48:04;;;;;;;25.98;8.38;;;;;;;;;;5053033;28;20029;-72
2022/06/10 04:50:30;;;;;;;32.25;13.90;;;;;;;;;;5052760;28;20104;-71
2022/06/10 04:52:57;;;;;;;20.13;7.90;;;;;;;;;;5052515;28;20508;-69
2022/06/10 04:55:23;;;;;;;22.38;7.20;;;;;;;;;;5050973;28;20021;-70
2022/06/10 04:57:49;;;;;;;86.43;43.78;;;;;;;;;;5051922;28;20018;-71
2022/06/10 05:00:18;;;;;;;15.65;6.07;;;;;;;;;;5052408;28;20017;-71
2022/06/10 05:02:44;;;;;;;21.75;6.43;;;;;;;;;;5051382;28;20429;-70
2022/06/10 05:05:10;;;;;;;26.50;6.75;;;;;;;;;;5051398;28;20021;-70
2022/06/10 05:07:36;;;;;;;27.75;6.63;;;;;;;;;;5051431;28;20043;-70
2022/06/10 05:10:03;;;;;;;24.25;6.13;;;;;;;;;;5051162;28;20025;-70
2022/06/10 05:12:29;;;;;;;18.92;5.97;;;;;;;;;;5051219;28;20128;-71
2022/06/10 05:14:55;;;;;;;18.08;5.57;;;;;;;;;;5052066;28;20025;-69
2022/06/10 05:17:21;;;;;;;19.35;5.35;;;;;;;;;;5051515;28;20036;-71
2022/06/10 05:19:47;;;;;;;16.95;5.43;;;;;;;;;;5051394;28;20099;-69
2022/06/10 05:22:14;;;;;;;23.75;5.47;;;;;;;;;;5051482;28;20117;-72
2022/06/10 05:24:40;;;;;;;19.50;5.22;;;;;;;;;;5052538;28;20394;-73
2022/06/10 05:27:07;;;;;;;11.75;4.45;;;;;;;;;;5033503;28;20178;-71
2022/06/10 05:29:33;;;;;;;24.33;4.97;;;;;;;;;;5053873;28;20033;-73
2022/06/10 05:31:59;;;;;;;20.50;4.28;;;;;;;;;;5055008;28;20454;-69
2022/06/10 05:37:10;;;;;;;22.08;4.00;;;;;;;;;;5051004;28;20082;-72
2022/06/10 05:39:36;;;;;;;15.10;4.20;;;;;;;;;;5051291;28;20021;-70
2022/06/10 05:42:05;;;;;;;19.25;3.92;;;;;;;;;;5051170;28;20107;-71
2022/06/10 05:44:31;;;;;;;16.63;3.10;;;;;;;;;;5051568;28;20032;-71
2022/06/10 05:46:57;;;;;;;20.88;4.53;;;;;;;;;;5052617;28;20029;-71
2022/06/10 05:49:24;;;;;;;25.33;4.00;;;;;;;;;;5053582;28;20367;-69
2022/06/10 05:51:50;;;;;;;18.75;3.50;;;;;;;;;;5034662;28;20021;-71
2022/06/10 05:54:17;;;;;;;21.10;4.65;;;;;;;;;;5033812;28;20021;-70
2022/06/10 05:56:45;;;;;;;20.05;3.83;;;;;;;;;;5052189;28;20025;-70
2022/06/10 05:59:13;;;;;;;23.10;4.25;;;;;;;;;;5053078;28;20437;-72
2022/06/10 06:01:38;;;;;;;18.42;3.60;;;;;;;;;;5055553;28;20086;-70
2022/06/10 06:04:04;;;;;;;21.45;3.63;;;;;;;;;;5054807;28;20029;-70
2022/06/10 06:06:30;;;;;;;24.88;3.55;;;;;;;;;;5054431;28;20036;-70
2022/06/10 06:08:56;;;;;;;17.92;3.58;;;;;;;;;;5035834;28;20048;-71
2022/06/10 06:11:22;;;;;;;15.25;2.97;;;;;;;;;;5054481;28;20085;-71
2022/06/10 06:13:48;;;;;;;16.75;3.47;;;;;;;;;;5054555;28;20396;-72
2022/06/10 06:16:15;;;;;;;11.30;2.70;;;;;;;;;;5053980;28;20040;-70
2022/06/10 06:18:42;;;;;;;16.42;2.80;;;;;;;;;;5053833;28;20025;-70
2022/06/10 06:21:08;;;;;;;17.98;3.10;;;;;;;;;;5054156;28;20025;-70
2022/06/10 06:23:34;;;;;;;18.40;3.03;;;;;;;;;;5054250;28;20029;-69
2022/06/10 06:26:00;;;;;;;14.50;2.80;;;;;;;;;;5054067;28;20025;-69
2022/06/10 06:28:27;;;;;;;15.10;2.75;;;;;;;;;;5054356;28;20398;-70
2022/06/10 06:30:53;;;;;;;19.45;3.13;;;;;;;;;;5037862;28;20385;-71
2022/06/10 06:33:19;;;;;;;15.23;2.90;;;;;;;;;;5037548;28;20035;-70
2022/06/10 06:35:48;;;;;;;18.35;3.45;;;;;;;;;;5054696;28;20021;-70
2022/06/10 06:38:14;;;;;;;20.50;3.28;;;;;;;;;;5054130;28;20478;-69
2022/06/10 06:40:42;;;;;;;18.17;2.85;;;;;;;;;;5055082;28;20029;-70
2022/06/10 06:43:08;;;;;;;16.88;2.60;;;;;;;;;;5054418;28;20027;-69
2022/06/10 06:45:35;;;;;;;20.50;2.70;;;;;;;;;;5053810;28;20070;-69
2022/06/10 06:48:08;;;;;;;8.63;2.03;;;;;;;;;;5054230;28;20021;-72
2022/06/10 06:50:34;;;;;;;17.70;2.65;;;;;;;;;;5054810;28;20090;-70
2022/06/10 06:53:00;;;;;;;11.68;2.22;;;;;;;;;;5055896;28;20092;-70
2022/06/10 06:55:26;;;;;;;13.18;2.40;;;;;;;;;;5053963;28;20466;-71
2022/06/10 06:57:52;;;;;;;18.33;2.63;;;;;;;;;;5054601;28;20100;-69
2022/06/10 07:00:18;;;;;;;12.15;2.38;;;;;;;;;;5057388;28;20033;-70
2022/06/10 07:02:44;;;;;;;18.60;3.03;;;;;;;;;;5055376;28;20029;-71
2022/06/10 07:05:12;;;;;;;14.48;2.92;;;;;;;;;;5056529;28;20547;-74
2022/06/10 07:07:38;;;;;;;12.32;2.17;;;;;;;;;;5054380;28;20025;-70
2022/06/10 07:10:05;;;;;;;18.73;3.17;;;;;;;;;;5037184;28;20029;-72
2022/06/10 07:12:31;;;;;;;19.10;3.30;;;;;;;;;;5053941;28;20029;-70
2022/06/10 07:14:57;;;;;;;19.98;3.10;;;;;;;;;;5053138;28;20021;-71
2022/06/10 07:17:22;;;;;;;18.27;3.42;;;;;;;;;;5053363;28;20052;-70
2022/06/10 07:19:51;;;;;;;19.85;4.05;;;;;;;;;;5053593;28;20080;-70
2022/06/10 07:22:17;;;;;;;15.80;3.20;;;;;;;;;;5053070;28;20117;-71
2022/06/10 07:24:43;;;;;;;17.15;3.10;;;;;;;;;;5053178;28;20060;-68
2022/06/10 07:27:09;;;;;;;16.80;3.65;;;;;;;;;;5052950;28;20073;-70
2022/06/10 07:29:35;;;;;;;27.45;8.07;;;;;;;;;;5053250;28;20115;-70
2022/06/10 07:32:01;;;;;;;19.27;3.42;;;;;;;;;;5050577;28;20068;-69
2022/06/10 07:34:27;;;;;;;15.30;2.95;;;;;;;;;;5054860;28;20028;-69
2022/06/10 07:36:53;;;;;;;21.75;4.68;;;;;;;;;;5034629;28;20060;-70
2022/06/10 07:39:19;;;;;;;20.20;3.30;;;;;;;;;;5053734;28;20025;-69
2022/06/10 07:41:57;;;;;;;18.13;4.57;;;;;;;;;;5052821;28;20093;-70
2022/06/10 07:44:24;;;;;;;26.92;5.65;;;;;;;;;;5053122;28;20025;-70
2022/06/10 07:46:51;;;;;;;18.17;3.15;;;;;;;;;;5052478;28;20441;-70
2022/06/10 07:49:17;;;;;;;20.95;3.08;;;;;;;;;;5052849;28;20025;-68
2022/06/10 07:51:43;;;;;;;18.17;3.47;;;;;;;;;;5052762;28;20025;-71
2022/06/10 07:54:09;;;;;;;23.67;4.18;;;;;;;;;;5052596;28;20017;-70
2022/06/10 07:56:35;;;;;;;21.85;3.75;;;;;;;;;;5051084;28;20107;-71
2022/06/10 07:59:01;;;;;;;19.90;4.85;;;;;;;;;;5052318;28;20017;-71
2022/06/10 08:01:29;;;;;;;14.60;2.45;;;;;;;;;;5052650;28;20029;-70
2022/06/10 08:03:55;;;;;;;21.35;5.80;;;;;;;;;;5052963;28;20021;-70
2022/06/10 08:06:22;;;;;;;25.23;6.97;;;;;;;;;;5052097;28;20025;-70
2022/06/10 08:08:48;;;;;;;17.23;3.85;;;;;;;;;;5057781;28;20033;-71
2022/06/10 08:11:15;;;;;;;18.02;2.45;;;;;;;;;;5056565;28;20032;-71
2022/06/10 08:13:41;;;;;;;18.98;3.30;;;;;;;;;;5053640;28;20045;-70
2022/06/10 08:16:07;;;;;;;14.40;3.08;;;;;;;;;;5052227;28;20397;-71
2022/06/10 08:18:33;;;;;;;14.73;2.35;;;;;;;;;;5052094;28;20025;-70
2022/06/10 08:23:45;;;;;;;15.95;2.60;;;;;;;;;;5053008;28;20110;-71
2022/06/10 08:26:11;;;;;;;16.38;2.92;;;;;;;;;;5052119;28;20021;-71
2022/06/10 08:28:38;;;;;;;22.73;2.88;;;;;;;;;;5052931;28;20108;-71
2022/06/10 08:31:05;;;;;;;18.17;2.70;;;;;;;;;;5050765;28;20025;-72
2022/06/10 08:33:31;;;;;;;14.95;2.70;;;;;;;;;;5050510;28;20390;-71
2022/06/10 08:35:57;;;;;;;14.77;2.45;;;;;;;;;;5049819;28;20455;-70
2022/06/10 08:38:23;;;;;;;15.02;2.13;;;;;;;;;;5052346;28;20107;-69
2022/06/10 08:40:58;;;;;;;13.90;2.42;;;;;;;;;;5038524;28;20027;-74
2022/06/10 08:43:28;;;;;;;15.15;2.58;;;;;;;;;;5073864;28;20032;-73
2022/06/10 08:46:03;;;;;;;15.05;2.63;;;;;;;;;;5071407;28;20028;-71
2022/06/10 08:48:41;;;;;;;13.45;2.33;;;;;;;;;;5071797;28;20058;-73
2022/06/10 08:51:07;;;;;;;15.75;2.40;;;;;;;;;;5071422;28;20071;-72
2022/06/10 08:53:49;;;;;;;17.55;3.05;;;;;;;;;;5071616;28;20517;-73
2022/06/10 08:56:16;;;;;;;20.02;3.75;;;;;;;;;;5071592;28;20103;-72
2022/06/10 08:59:01;;;;;;;15.75;2.67;;;;;;;;;;5072136;28;20023;-72
2022/06/10 09:01:30;;;;;;;20.20;4.05;;;;;;;;;;5072390;28;20028;-71
2022/06/10 09:03:56;;;;;;;15.88;3.03;;;;;;;;;;5073324;28;20033;-73
2022/06/10 09:06:27;;;;;;;19.75;3.42;;;;;;;;;;5056576;28;20039;-73
2022/06/10 09:08:54;;;;;;;12.95;2.67;;;;;;;;;;5076354;28;20024;-72
2022/06/10 09:11:25;;;;;;;15.90;3.45;;;;;;;;;;5073748;28;20051;-71
2022/06/10 09:13:51;;;;;;;17.15;3.15;;;;;;;;;;5077714;28;20071;-70
2022/06/10 09:16:20;;;;;;;18.88;3.00;;;;;;;;;;5071686;28;20115;-71
2022/06/10 09:18:58;;;;;;;15.60;3.00;;;;;;;;;;5073113;28;20052;-71
2022/06/10 09:21:28;;;;;;;17.13;2.90;;;;;;;;;;5071624;28;20033;-70
2022/06/10 09:23:56;;;;;;;11.90;2.78;;;;;;;;;;5071859;28;20111;-71
2022/06/10 09:26:30;;;;;;;14.60;2.97;;;;;;;;;;5053411;28;20035;-70
2022/06/10 09:28:56;;;;;;;24.83;3.72;;;;;;;;;;5071622;28;20466;-70
2022/06/10 09:31:36;;;;;;;19.23;3.33;;;;;;;;;;5071478;28;20094;-70
2022/06/10 09:34:07;;;;;;;14.40;3.03;;;;;;;;;;5073829;28;20051;-70
2022/06/10 09:36:51;;;;;;;12.00;2.88;;;;;;;;;;5075149;28;20029;-71
2022/06/10 09:42:43;;;;;;;19.42;3.83;;;;;;;;;;5041040;28;20032;-70
2022/06/10 09:45:16;;;;;;;14.45;3.13;;;;;;;;;;5075978;28;20021;-70
2022/06/10 09:47:55;;;;;;;14.65;2.85;;;;;;;;;;5075478;28;20094;-70
2022/06/10 09:50:21;;;;;;;19.95;3.13;;;;;;;;;;5075552;28;20457;-70
2022/06/10 09:52:47;;;;;;;15.80;3.00;;;;;;;;;;5059001;28;20024;-70
2022/06/10 09:55:16;;;;;;;14.75;2.70;;;;;;;;;;5076304;28;20473;-72
2022/06/10 09:57:55;;;;;;;17.30;2.83;;;;;;;;;;5075322;28;20021;-71
2022/06/10 10:00:24;;;;;;;17.92;3.05;;;;;;;;;;5075707;28;20074;-71
2022/06/10 10:03:02;;;;;;;13.63;2.95;;;;;;;;;;5080851;28;20445;-71
2022/06/10 10:05:34;;;;;;;20.33;3.33;;;;;;;;;;5074620;28;20028;-71
2022/06/10 10:08:00;;;;;;;18.75;3.58;;;;;;;;;;5076231;28;20028;-71
2022/06/10 10:10:46;;;;;;;18.35;3.05;;;;;;;;;;5056994;28;20028;-72
2022/06/10 10:13:31;;;;;;;19.52;3.42;;;;;;;;;;5074912;28;20469;-69
2022/06/10 10:16:20;;;;;;;14.73;3.35;;;;;;;;;;5074280;28;20116;-70
2022/06/10 10:18:52;;;;;;;18.75;3.22;;;;;;;;;;5074433;28;20389;-71
2022/06/10 10:21:53;;;;;;;16.08;3.40;;;;;;;;;;5074103;28;20033;-71
2022/06/10 10:24:21;;;;;;;15.38;3.53;;;;;;;;;;4992581;28;20035;-70
2022/06/10 10:26:49;;;;;;;18.15;3.28;;;;;;;;;;5058853;28;20056;-70
2022/06/10 10:29:17;;;;;;;11.43;3.20;;;;;;;;;;5074851;28;20104;-70
2022/06/10 10:32:01;;;;;;;13.95;3.63;;;;;;;;;;5074600;28;20127;-68
2022/06/10 10:34:32;;;;;;;15.93;2.83;;;;;;;;;;5074495;28;20025;-69
2022/06/10 10:36:59;;;;;;;19.42;3.83;;;;;;;;;;5074492;28;20021;-70
2022/06/10 10:39:25;;;;;;;15.77;2.63;;;;;;;;;;5074424;28;20029;-69
2022/06/10 10:41:52;;;;;;;13.10;2.78;;;;;;;;;;5076130;28;20028;-69
2022/06/10 10:44:34;;;;;;;17.70;2.50;;;;;;;;;;5075213;28;20067;-70
2022/06/10 10:47:10;;;;;;;15.60;2.95;;;;;;;;;;5083040;28;20024;-68
2022/06/10 10:49:43;;;;;;;13.43;2.90;;;;;;;;;;5080883;28;20119;-71
2022/06/10 10:52:19;;;;;;;13.10;3.00;;;;;;;;;;5075058;28;20099;-70
2022/06/10 10:54:48;;;;;;;23.55;3.28;;;;;;;;;;5077481;28;20298;-71
2022/06/10 10:57:40;;;;;;;13.23;3.08;;;;;;;;;;5074352;28;20372;-70
2022/06/10 11:00:12;;;;;;;12.23;2.47;;;;;;;;;;5074504;28;20064;-73
2022/06/10 11:02:48;;;;;;;12.90;2.70;;;;;;;;;;5075570;28;20029;-73
2022/06/10 11:05:17;;;;;;;12.40;2.78;;;;;;;;;;5076205;28;20060;-69
2022/06/10 11:07:45;;;;;;;11.57;2.60;;;;;;;;;;5073719;28;20046;-71
2022/06/10 11:10:14;;;;;;;11.77;2.30;;;;;;;;;;5055755;28;20482;-69
2022/06/10 11:12:41;;;;;;;11.15;2.50;;;;;;;;;;5059723;28;20115;-71
2022/06/10 11:15:16;;;;;;;17.45;2.67;;;;;;;;;;5074542;28;20489;-71
2022/06/10 11:17:43;;;;;;;14.38;2.28;;;;;;;;;;5073746;28;20036;-73
2022/06/10 11:20:15;;;;;;;9.93;2.28;;;;;;;;;;5073845;28;20558;-71
2022/06/10 11:22:43;;;;;;;13.18;2.90;;;;;;;;;;5073492;28;20033;-70
2022/06/10 11:25:14;;;;;;;14.60;2.92;;;;;;;;;;5073493;28;20099;-70
2022/06/10 11:27:41;;;;;;;16.38;2.97;;;;;;;;;;5055436;28;20024;-70
2022/06/10 11:30:10;;;;;;;15.25;3.67;;;;;;;;;;5075860;28;20058;-70
2022/06/10 11:32:48;;;;;;;13.75;2.70;;;;;;;;;;5074724;28;20466;-70
2022/06/10 11:35:32;;;;;;;14.88;2.83;;;;;;;;;;5072641;28;20042;-70
2022/06/10 11:38:16;;;;;;;15.85;3.22;;;;;;;;;;5073194;28;20027;-69
2022/06/10 11:40:43;;;;;;;;;;;;;;;;;;5073499;28;20385;-70
2022/06/10 11:43:27;;;;;;;12.38;4.40;;;;;;;;;;5073810;28;19908;-68
2022/06/10 11:46:02;;;;;;;15.00;3.67;;;;;;;;;;5072757;28;20048;-70
2022/06/10 11:48:56;;;;;;;15.35;2.20;;;;;;;;;;5074976;28;20635;-69
2022/06/10 11:51:28;;;;;;;13.85;2.55;;;;;;;;;;5056860;28;20123;-68
2022/06/10 11:53:58;;;;;;;8.25;2.72;;;;;;;;;;5072996;28;20078;-70
2022/06/10 12:02:05;;;;;;;11.43;3.05;;;;;;;;;;5072878;28;20094;-71
2022/06/10 12:04:34;;;;;;;14.82;2.85;;;;;;;;;;5072323;28;20032;-71
2022/06/10 12:07:02;;;;;;;9.02;2.05;;;;;;;;;;5071795;28;20132;-70
2022/06/10 12:09:32;;;;;;;9.98;2.33;;;;;;;;;;5074593;28;20064;-71
2022/06/10 12:12:03;;;;;;;13.43;2.40;;;;;;;;;;5072674;28;20021;-70
2022/06/10 12:14:38;;;;;;;8.75;2.33;;;;;;;;;;5072757;28;20020;-72
2022/06/10 12:17:07;;;;;;;9.77;2.38;;;;;;;;;;5072066;28;20028;-71
2022/06/10 12:19:36;;;;;;;7.53;2.03;;;;;;;;;;5075018;28;20052;-70
2022/06/10 12:22:03;;;;;;;10.27;2.65;;;;;;;;;;5059462;28;20064;-71
2022/06/10 12:24:29;;;;;;;12.55;2.40;;;;;;;;;;5075503;28;20028;-71
2022/06/10 12:27:00;;;;;;;17.10;2.60;;;;;;;;;;5072427;28;20036;-72
2022/06/10 12:29:35;;;;;;;10.85;3.00;;;;;;;;;;5054401;28;20025;-70
2022/06/10 12:32:05;;;;;;;15.00;3.58;;;;;;;;;;5071762;28;20016;-72
2022/06/10 12:34:41;;;;;;;17.55;3.15;;;;;;;;;;5071792;28;20020;-69
2022/06/10 12:37:08;;;;;;;15.60;3.40;;;;;;;;;;5071822;28;20033;-70
2022/06/10 12:39:46;;;;;;;14.93;3.42;;;;;;;;;;5072023;28;20032;-71
2022/06/10 12:42:15;;;;;;;14.07;2.80;;;;;;;;;;5071925;28;20109;-71
2022/06/10 12:44:47;;;;;;;13.52;3.45;;;;;;;;;;5054040;28;20024;-70
2022/06/10 12:47:14;;;;;;;13.23;3.40;;;;;;;;;;5053365;28;20032;-71
2022/06/10 12:49:42;;;;;;;11.85;3.40;;;;;;;;;;5056574;28;20035;-72
2022/06/10 12:52:14;;;;;;;15.88;3.70;;;;;;;;;;5072908;28;20068;-71
2022/06/10 12:54:46;;;;;;;12.75;3.38;;;;;;;;;;5072622;28;20637;-69
2022/06/10 12:57:31;;;;;;;12.63;2.70;;;;;;;;;;5072212;28;20021;-72
2022/06/10 13:00:26;;;;;;;13.48;3.30;;;;;;;;;;5072327;28;20028;-71
2022/06/10 13:02:53;;;;;;;13.50;3.25;;;;;;;;;;5071689;28;20028;-71
2022/06/10 13:05:27;;;;;;;13.55;2.92;;;;;;;;;;5071519;28;20044;-70
2022/06/10 13:07:53;;;;;;;12.63;3.15;;;;;;;;;;5074454;28;20024;-71
2022/06/10 13:10:34;;;;;;;13.93;3.67;;;;;;;;;;5075954;28;20093;-70
2022/06/10 13:13:11;;;;;;;11.63;2.63;;;;;;;;;;5076287;28;20385;-70
2022/06/10 13:15:37;;;;;;;8.95;2.28;;;;;;;;;;5076920;28;20032;-71
2022/06/10 13:18:25;;;;;;;5.45;1.65;;;;;;;;;;5063793;28;20158;-69
2022/06/10 13:20:51;;;;;;;6.30;1.73;;;;;;;;;;5079314;28;20047;-70
2022/06/10 13:23:20;;;;;;;10.13;2.00;;;;;;;;;;5078630;28;20024;-70
2022/06/10 13:25:48;;;;;;;9.88;2.00;;;;;;;;;;5082400;28;20085;-70
2022/06/10 13:28:16;;;;;;;6.90;1.67;;;;;;;;;;5083705;28;20097;-73
2022/06/10 13:30:42;;;;;;;8.85;1.95;;;;;;;;;;5083315;28;20028;-70
2022/06/10 13:33:11;;;;;;;6.95;1.90;;;;;;;;;;5080246;28;20029;-70
2022/06/10 13:35:38;;;;;;;7.30;1.50;;;;;;;;;;5077089;28;20043;-69
2022/06/10 13:38:09;;;;;;;12.35;1.88;;;;;;;;;;5077565;28;20025;-69
2022/06/10 13:40:37;;;;;;;7.57;2.08;;;;;;;;;;5079183;28;20020;-72
2022/06/10 13:43:04;;;;;;;12.35;2.15;;;;;;;;;;5061925;28;20048;-72
2022/06/10 13:45:36;;;;;;;9.35;1.77;;;;;;;;;;5081566;28;20088;-72
2022/06/10 13:48:08;;;;;;;14.25;2.10;;;;;;;;;;5082003;28;20020;-72
2022/06/10 13:53:20;;;;;;;7.68;1.85;;;;;;;;;;5082726;28;20389;-70
2022/06/10 13:55:52;;;;;;;11.43;1.92;;;;;;;;;;5076439;28;20021;-72
2022/06/10 13:58:19;;;;;;;24.33;6.82;;;;;;;;;;5076548;28;20099;-72
2022/06/10 14:00:47;;;;;;;11.07;1.98;;;;;;;;;;5079616;28;20101;-76
2022/06/10 14:03:37;;;;;;;8.45;2.00;;;;;;;;;;5077027;28;20028;-74
2022/06/10 14:06:13;;;;;;;12.85;1.75;;;;;;;;;;5078437;28;20418;-74
2022/06/10 14:08:40;;;;;;;11.88;1.90;;;;;;;;;;5076260;28;20032;-73
2022/06/10 14:11:11;;;;;;;14.50;2.10;;;;;;;;;;5074984;28;20023;-74
2022/06/10 14:13:37;;;;;;;10.30;2.47;;;;;;;;;;5075604;28;20400;-73
2022/06/10 14:16:04;;;;;;;6.35;1.60;;;;;;;;;;5076355;28;20056;-73
2022/06/10 14:18:31;;;;;;;9.07;1.60;;;;;;;;;;5076694;28;20028;-72
2022/06/10 14:20:59;;;;;;;12.30;1.98;;;;;;;;;;5074927;28;20062;-72
2022/06/10 14:23:33;;;;;;;5.47;1.40;;;;;;;;;;5075365;28;20048;-72
2022/06/10 14:26:04;;;;;;;6.77;1.80;;;;;;;;;;5074617;28;20029;-71
2022/06/10 14:28:30;;;;;;;9.63;2.10;;;;;;;;;;5074264;28;20020;-70
2022/06/10 14:30:59;;;;;;;9.60;2.13;;;;;;;;;;5074901;28;20659;-73
2022/06/10 14:33:38;;;;;;;5.72;2.25;;;;;;;;;;5075348;28;20013;-71
2022/06/10 14:36:07;;;;;;;9.93;2.33;;;;;;;;;;5076076;28;20059;-71
2022/06/10 14:38:33;;;;;;;9.50;3.60;;;;;;;;;;5074923;28;20025;-69
2022/06/10 14:41:08;;;;;;;5.03;1.80;;;;;;;;;;5077495;28;20131;-70
2022/06/10 14:43:35;;;;;;;8.32;2.28;;;;;;;;;;5074324;28;20378;-70
2022/06/10 14:46:06;;;;;;;5.25;2.15;;;;;;;;;;5074005;28;20030;-69
2022/06/10 14:48:34;;;;;;;6.88;2.30;;;;;;;;;;5074787;28;20020;-71
2022/06/10 14:51:11;;;;;;;12.95;2.63;;;;;;;;;;5057424;28;20024;-72
2022/06/10 14:53:37;;;;;;;9.52;2.33;;;;;;;;;;5076096;28;20047;-71
2022/06/10 14:56:06;;;;;;;8.23;2.70;;;;;;;;;;5080455;28;20099;-71
2022/06/10 14:58:32;;;;;;;11.50;2.75;;;;;;;;;;5074633;28;20020;-70
2022/06/10 15:00:57;;;;;;;11.93;3.15;;;;;;;;;;5075049;28;20080;-72
2022/06/10 15:03:27;;;;;;;8.20;2.53;;;;;;;;;;5074146;28;20071;-70
2022/06/10 15:06:16;;;;;;;10.95;3.38;;;;;;;;;;5073704;28;20033;-69
2022/06/10 15:08:45;;;;;;;13.30;3.72;;;;;;;;;;5073655;28;20050;-71
2022/06/10 15:11:11;;;;;;;13.10;3.45;;;;;;;;;;5073295;28;20509;-71